sensor_id;sensor_type;location;lat;lon;timestamp;P1;durP1;ratioP1;P2;durP2;ratioP2
34030;SDS011;20319;28.466;-16.274;2022-09-09T00:00:47;4.20;;;1.17;;
34030;SDS011;20319;28.466;-16.274;2022-09-09T00:03:42;6.28;;;1.15;;
34030;SDS011;20319;28.466;-16.274;2022-09-09T00:06:15;3.10;;;1.05;;
34030;SDS011;20319;28.466;-16.274;2022-09-09T00:09:12;4.05;;;1.20;;
34030;SDS011;20319;28.466;-16.274;2022-09-09T00:11:51;2.10;;;1.10;;
34030;SDS011;20319;28.466;-16.274;2022-09-09T00:17:48;4.13;;;1.10;;
34030;SDS011;20319;28.466;-16.274;2022-09-09T00:20:30;3.72;;;1.13;;
34030;SDS011;20319;28.466;-16.274;2022-09-09T00:28:36;3.08;;;1.17;;
34030;SDS011;20319;28.466;-16.274;2022-09-09T00:31:13;5.13;;;1.50;;
34030;SDS011;20319;28.466;-16.274;2022-09-09T00:33:45;3.55;;;1.20;;
34030;SDS011;20319;28.466;-16.274;2022-09-09T00:36:13;3.60;;;1.23;;
34030;SDS011;20319;28.466;-16.274;2022-09-09T00:39:01;4.05;;;1.35;;
34030;SDS011;20319;28.466;-16.274;2022-09-09T00:41:39;2.97;;;1.63;;
34030;SDS011;20319;28.466;-16.274;2022-09-09T00:49:59;3.72;;;1.25;;
34030;SDS011;20319;28.466;-16.274;2022-09-09T00:52:39;3.90;;;1.13;;
34030;SDS011;20319;28.466;-16.274;2022-09-09T00:55:17;3.20;;;1.35;;
34030;SDS011;20319;28.466;-16.274;2022-09-09T00:57:52;5.32;;;1.17;;
34030;SDS011;20319;28.466;-16.274;2022-09-09T01:05:49;3.00;;;1.20;;
34030;SDS011;20319;28.466;-16.274;2022-09-09T01:11:26;4.32;;;1.67;;
34030;SDS011;20319;28.466;-16.274;2022-09-09T01:14:44;3.95;;;1.80;;
34030;SDS011;20319;28.466;-16.274;2022-09-09T01:17:01;4.03;;;2.08;;
34030;SDS011;20319;28.466;-16.274;2022-09-09T01:22:29;4.55;;;2.33;;
34030;SDS011;20319;28.466;-16.274;2022-09-09T01:27:53;7.65;;;4.65;;
34030;SDS011;20319;28.466;-16.274;2022-09-09T01:30:23;10.20;;;7.07;;
34030;SDS011;20319;28.466;-16.274;2022-09-09T01:32:52;11.68;;;9.00;;
34030;SDS011;20319;28.466;-16.274;2022-09-09T01:38:19;8.90;;;5.10;;
34030;SDS011;20319;28.466;-16.274;2022-09-09T01:40:46;10.82;;;8.60;;
34030;SDS011;20319;28.466;-16.274;2022-09-09T01:43:12;16.52;;;14.43;;
34030;SDS011;20319;28.466;-16.274;2022-09-09T01:45:39;14.90;;;11.48;;
34030;SDS011;20319;28.466;-16.274;2022-09-09T01:48:08;10.23;;;8.40;;
34030;SDS011;20319;28.466;-16.274;2022-09-09T01:50:34;12.48;;;8.85;;
34030;SDS011;20319;28.466;-16.274;2022-09-09T01:52:59;12.93;;;9.45;;
34030;SDS011;20319;28.466;-16.274;2022-09-09T01:55:33;11.95;;;9.80;;
34030;SDS011;20319;28.466;-16.274;2022-09-09T02:03:29;4.88;;;2.92;;
34030;SDS011;20319;28.466;-16.274;2022-09-09T02:08:45;6.97;;;3.10;;
34030;SDS011;20319;28.466;-16.274;2022-09-09T02:11:18;4.45;;;2.22;;
34030;SDS011;20319;28.466;-16.274;2022-09-09T02:13:47;4.40;;;2.22;;
34030;SDS011;20319;28.466;-16.274;2022-09-09T02:16:18;4.75;;;1.63;;
34030;SDS011;20319;28.466;-16.274;2022-09-09T02:21:34;4.95;;;2.03;;
34030;SDS011;20319;28.466;-16.274;2022-09-09T02:24:02;3.95;;;1.67;;
34030;SDS011;20319;28.466;-16.274;2022-09-09T02:26:31;3.28;;;1.50;;
34030;SDS011;20319;28.466;-16.274;2022-09-09T02:28:59;3.97;;;1.30;;
34030;SDS011;20319;28.466;-16.274;2022-09-09T02:31:28;3.33;;;1.67;;
34030;SDS011;20319;28.466;-16.274;2022-09-09T02:33:55;2.85;;;1.40;;
34030;SDS011;20319;28.466;-16.274;2022-09-09T02:36:26;3.15;;;1.35;;
34030;SDS011;20319;28.466;-16.274;2022-09-09T02:38:56;3.92;;;1.30;;
34030;SDS011;20319;28.466;-16.274;2022-09-09T02:41:32;2.83;;;1.15;;
34030;SDS011;20319;28.466;-16.274;2022-09-09T02:43:59;2.53;;;1.17;;
34030;SDS011;20319;28.466;-16.274;2022-09-09T02:52:00;4.50;;;1.27;;
34030;SDS011;20319;28.466;-16.274;2022-09-09T02:57:17;2.70;;;1.02;;
34030;SDS011;20319;28.466;-16.274;2022-09-09T02:59:47;4.97;;;1.15;;
34030;SDS011;20319;28.466;-16.274;2022-09-09T03:02:13;3.25;;;1.15;;
34030;SDS011;20319;28.466;-16.274;2022-09-09T03:04:39;2.28;;;1.15;;
34030;SDS011;20319;28.466;-16.274;2022-09-09T03:07:06;2.63;;;1.02;;
34030;SDS011;20319;28.466;-16.274;2022-09-09T03:09:32;4.20;;;1.30;;
34030;SDS011;20319;28.466;-16.274;2022-09-09T03:11:58;3.20;;;1.23;;
34030;SDS011;20319;28.466;-16.274;2022-09-09T03:14:24;3.30;;;1.38;;
34030;SDS011;20319;28.466;-16.274;2022-09-09T03:16:50;2.95;;;1.10;;
34030;SDS011;20319;28.466;-16.274;2022-09-09T03:19:16;2.60;;;1.05;;
34030;SDS011;20319;28.466;-16.274;2022-09-09T03:21:43;4.03;;;1.20;;
34030;SDS011;20319;28.466;-16.274;2022-09-09T03:24:10;4.00;;;1.10;;
34030;SDS011;20319;28.466;-16.274;2022-09-09T03:26:36;4.13;;;1.27;;
34030;SDS011;20319;28.466;-16.274;2022-09-09T03:29:03;5.38;;;1.52;;
34030;SDS011;20319;28.466;-16.274;2022-09-09T03:31:31;4.00;;;1.40;;
34030;SDS011;20319;28.466;-16.274;2022-09-09T03:33:58;2.83;;;1.10;;
34030;SDS011;20319;28.466;-16.274;2022-09-09T03:36:24;3.75;;;1.30;;
34030;SDS011;20319;28.466;-16.274;2022-09-09T03:38:51;3.92;;;1.50;;
34030;SDS011;20319;28.466;-16.274;2022-09-09T03:41:17;3.50;;;1.13;;
34030;SDS011;20319;28.466;-16.274;2022-09-09T03:43:43;2.35;;;1.20;;
34030;SDS011;20319;28.466;-16.274;2022-09-09T03:46:09;2.50;;;1.00;;
34030;SDS011;20319;28.466;-16.274;2022-09-09T03:48:35;3.30;;;1.10;;
34030;SDS011;20319;28.466;-16.274;2022-09-09T03:51:01;4.30;;;1.23;;
34030;SDS011;20319;28.466;-16.274;2022-09-09T03:53:28;2.08;;;1.00;;
34030;SDS011;20319;28.466;-16.274;2022-09-09T03:55:54;2.65;;;1.15;;
34030;SDS011;20319;28.466;-16.274;2022-09-09T03:58:23;4.78;;;1.13;;
34030;SDS011;20319;28.466;-16.274;2022-09-09T04:01:08;6.07;;;1.45;;
34030;SDS011;20319;28.466;-16.274;2022-09-09T04:03:35;3.10;;;1.00;;
34030;SDS011;20319;28.466;-16.274;2022-09-09T04:06:02;3.13;;;0.82;;
34030;SDS011;20319;28.466;-16.274;2022-09-09T04:08:29;4.18;;;1.58;;
34030;SDS011;20319;28.466;-16.274;2022-09-09T04:10:56;4.70;;;1.52;;
34030;SDS011;20319;28.466;-16.274;2022-09-09T04:13:23;3.28;;;1.10;;
34030;SDS011;20319;28.466;-16.274;2022-09-09T04:15:53;3.65;;;1.17;;
34030;SDS011;20319;28.466;-16.274;2022-09-09T04:18:21;4.22;;;1.38;;
34030;SDS011;20319;28.466;-16.274;2022-09-09T04:20:51;3.03;;;1.08;;
34030;SDS011;20319;28.466;-16.274;2022-09-09T04:23:18;2.17;;;1.10;;
34030;SDS011;20319;28.466;-16.274;2022-09-09T04:25:48;3.55;;;1.10;;
34030;SDS011;20319;28.466;-16.274;2022-09-09T04:28:16;3.80;;;1.50;;
34030;SDS011;20319;28.466;-16.274;2022-09-09T04:30:43;4.85;;;1.13;;
34030;SDS011;20319;28.466;-16.274;2022-09-09T04:33:09;3.15;;;1.08;;
34030;SDS011;20319;28.466;-16.274;2022-09-09T04:35:35;3.58;;;1.30;;
34030;SDS011;20319;28.466;-16.274;2022-09-09T04:38:02;3.10;;;1.02;;
34030;SDS011;20319;28.466;-16.274;2022-09-09T04:40:28;3.28;;;1.20;;
34030;SDS011;20319;28.466;-16.274;2022-09-09T04:42:54;3.83;;;1.17;;
34030;SDS011;20319;28.466;-16.274;2022-09-09T04:45:22;3.90;;;1.17;;
34030;SDS011;20319;28.466;-16.274;2022-09-09T04:47:48;2.30;;;0.95;;
34030;SDS011;20319;28.466;-16.274;2022-09-09T04:50:14;3.53;;;0.98;;
34030;SDS011;20319;28.466;-16.274;2022-09-09T04:52:40;5.05;;;1.20;;
34030;SDS011;20319;28.466;-16.274;2022-09-09T04:55:06;3.70;;;1.10;;
34030;SDS011;20319;28.466;-16.274;2022-09-09T04:57:32;3.67;;;1.25;;
34030;SDS011;20319;28.466;-16.274;2022-09-09T04:59:59;4.03;;;0.88;;
34030;SDS011;20319;28.466;-16.274;2022-09-09T05:02:32;3.35;;;1.10;;
34030;SDS011;20319;28.466;-16.274;2022-09-09T05:04:58;2.17;;;1.13;;
34030;SDS011;20319;28.466;-16.274;2022-09-09T05:07:26;2.47;;;1.00;;
34030;SDS011;20319;28.466;-16.274;2022-09-09T05:09:52;5.15;;;1.52;;
34030;SDS011;20319;28.466;-16.274;2022-09-09T05:12:17;2.22;;;1.08;;
34030;SDS011;20319;28.466;-16.274;2022-09-09T05:14:43;2.10;;;0.93;;
34030;SDS011;20319;28.466;-16.274;2022-09-09T05:17:09;5.10;;;1.20;;
34030;SDS011;20319;28.466;-16.274;2022-09-09T05:19:35;4.95;;;1.35;;
34030;SDS011;20319;28.466;-16.274;2022-09-09T05:22:01;5.07;;;1.13;;
34030;SDS011;20319;28.466;-16.274;2022-09-09T05:24:27;3.45;;;1.50;;
34030;SDS011;20319;28.466;-16.274;2022-09-09T05:26:53;2.95;;;1.10;;
34030;SDS011;20319;28.466;-16.274;2022-09-09T05:29:18;2.83;;;1.30;;
34030;SDS011;20319;28.466;-16.274;2022-09-09T05:31:46;4.80;;;1.05;;
34030;SDS011;20319;28.466;-16.274;2022-09-09T05:34:18;3.08;;;1.00;;
34030;SDS011;20319;28.466;-16.274;2022-09-09T05:36:44;4.00;;;1.20;;
34030;SDS011;20319;28.466;-16.274;2022-09-09T05:39:10;2.83;;;1.00;;
34030;SDS011;20319;28.466;-16.274;2022-09-09T05:41:37;3.10;;;1.10;;
34030;SDS011;20319;28.466;-16.274;2022-09-09T05:44:02;4.03;;;1.10;;
34030;SDS011;20319;28.466;-16.274;2022-09-09T05:46:28;6.40;;;1.58;;
34030;SDS011;20319;28.466;-16.274;2022-09-09T05:48:55;3.10;;;0.98;;
34030;SDS011;20319;28.466;-16.274;2022-09-09T05:51:22;2.13;;;0.93;;
34030;SDS011;20319;28.466;-16.274;2022-09-09T05:53:57;5.43;;;1.42;;
34030;SDS011;20319;28.466;-16.274;2022-09-09T05:56:24;4.93;;;1.27;;
34030;SDS011;20319;28.466;-16.274;2022-09-09T05:58:51;2.03;;;1.13;;
34030;SDS011;20319;28.466;-16.274;2022-09-09T06:01:22;3.47;;;1.13;;
34030;SDS011;20319;28.466;-16.274;2022-09-09T06:03:51;2.72;;;1.00;;
34030;SDS011;20319;28.466;-16.274;2022-09-09T06:06:25;5.75;;;1.42;;
34030;SDS011;20319;28.466;-16.274;2022-09-09T06:08:53;4.30;;;1.38;;
34030;SDS011;20319;28.466;-16.274;2022-09-09T06:11:27;2.00;;;1.10;;
34030;SDS011;20319;28.466;-16.274;2022-09-09T06:13:56;3.42;;;1.20;;
34030;SDS011;20319;28.466;-16.274;2022-09-09T06:16:23;2.90;;;1.38;;
34030;SDS011;20319;28.466;-16.274;2022-09-09T06:18:50;5.40;;;1.45;;
34030;SDS011;20319;28.466;-16.274;2022-09-09T06:21:17;3.50;;;1.23;;
34030;SDS011;20319;28.466;-16.274;2022-09-09T06:23:45;5.32;;;1.80;;
34030;SDS011;20319;28.466;-16.274;2022-09-09T06:26:16;5.00;;;1.50;;
34030;SDS011;20319;28.466;-16.274;2022-09-09T06:28:47;4.93;;;1.55;;
34030;SDS011;20319;28.466;-16.274;2022-09-09T06:31:15;3.38;;;1.33;;
34030;SDS011;20319;28.466;-16.274;2022-09-09T06:33:42;3.15;;;1.30;;
34030;SDS011;20319;28.466;-16.274;2022-09-09T06:36:13;5.72;;;1.60;;
34030;SDS011;20319;28.466;-16.274;2022-09-09T06:38:43;4.18;;;1.30;;
34030;SDS011;20319;28.466;-16.274;2022-09-09T06:41:10;6.25;;;2.90;;
34030;SDS011;20319;28.466;-16.274;2022-09-09T06:43:37;3.15;;;1.23;;
34030;SDS011;20319;28.466;-16.274;2022-09-09T06:46:07;3.83;;;1.38;;
34030;SDS011;20319;28.466;-16.274;2022-09-09T06:48:35;3.97;;;1.30;;
34030;SDS011;20319;28.466;-16.274;2022-09-09T06:51:05;2.25;;;1.23;;
34030;SDS011;20319;28.466;-16.274;2022-09-09T06:53:33;6.05;;;2.00;;
34030;SDS011;20319;28.466;-16.274;2022-09-09T06:56:13;4.90;;;1.30;;
34030;SDS011;20319;28.466;-16.274;2022-09-09T06:58:42;5.35;;;1.85;;
34030;SDS011;20319;28.466;-16.274;2022-09-09T07:01:14;3.78;;;1.50;;
34030;SDS011;20319;28.466;-16.274;2022-09-09T07:03:48;6.30;;;1.40;;
34030;SDS011;20319;28.466;-16.274;2022-09-09T07:06:16;5.97;;;1.70;;
34030;SDS011;20319;28.466;-16.274;2022-09-09T07:08:44;3.60;;;1.77;;
34030;SDS011;20319;28.466;-16.274;2022-09-09T07:11:15;6.50;;;2.70;;
34030;SDS011;20319;28.466;-16.274;2022-09-09T07:13:41;5.22;;;2.05;;
34030;SDS011;20319;28.466;-16.274;2022-09-09T07:16:08;7.32;;;3.30;;
34030;SDS011;20319;28.466;-16.274;2022-09-09T07:18:35;8.82;;;5.10;;
34030;SDS011;20319;28.466;-16.274;2022-09-09T07:21:02;13.35;;;9.50;;
34030;SDS011;20319;28.466;-16.274;2022-09-09T07:23:29;11.05;;;8.38;;
34030;SDS011;20319;28.466;-16.274;2022-09-09T07:25:56;11.15;;;7.32;;
34030;SDS011;20319;28.466;-16.274;2022-09-09T07:28:23;11.32;;;9.18;;
34030;SDS011;20319;28.466;-16.274;2022-09-09T07:30:59;9.43;;;6.93;;
34030;SDS011;20319;28.466;-16.274;2022-09-09T07:33:29;25.30;;;22.63;;
34030;SDS011;20319;28.466;-16.274;2022-09-09T07:36:07;12.45;;;9.57;;
34030;SDS011;20319;28.466;-16.274;2022-09-09T07:38:41;15.63;;;13.73;;
34030;SDS011;20319;28.466;-16.274;2022-09-09T07:41:12;14.20;;;7.93;;
34030;SDS011;20319;28.466;-16.274;2022-09-09T07:43:41;31.73;;;28.42;;
34030;SDS011;20319;28.466;-16.274;2022-09-09T07:46:08;27.05;;;24.10;;
34030;SDS011;20319;28.466;-16.274;2022-09-09T07:48:35;10.32;;;7.65;;
34030;SDS011;20319;28.466;-16.274;2022-09-09T07:53:31;8.25;;;7.22;;
34030;SDS011;20319;28.466;-16.274;2022-09-09T07:56:07;10.93;;;8.70;;
34030;SDS011;20319;28.466;-16.274;2022-09-09T07:58:38;13.18;;;9.40;;
34030;SDS011;20319;28.466;-16.274;2022-09-09T08:01:06;13.73;;;12.27;;
34030;SDS011;20319;28.466;-16.274;2022-09-09T08:03:37;6.75;;;3.60;;
34030;SDS011;20319;28.466;-16.274;2022-09-09T08:06:03;29.58;;;26.67;;
34030;SDS011;20319;28.466;-16.274;2022-09-09T08:08:32;20.98;;;18.83;;
34030;SDS011;20319;28.466;-16.274;2022-09-09T08:11:05;12.98;;;11.05;;
34030;SDS011;20319;28.466;-16.274;2022-09-09T08:13:34;16.27;;;14.18;;
34030;SDS011;20319;28.466;-16.274;2022-09-09T08:16:08;9.52;;;7.97;;
34030;SDS011;20319;28.466;-16.274;2022-09-09T08:18:36;8.73;;;5.72;;
34030;SDS011;20319;28.466;-16.274;2022-09-09T08:21:06;10.32;;;8.63;;
34030;SDS011;20319;28.466;-16.274;2022-09-09T08:23:42;4.22;;;2.70;;
34030;SDS011;20319;28.466;-16.274;2022-09-09T08:26:11;5.07;;;3.08;;
34030;SDS011;20319;28.466;-16.274;2022-09-09T08:28:40;6.85;;;4.00;;
34030;SDS011;20319;28.466;-16.274;2022-09-09T08:31:13;7.18;;;2.25;;
34030;SDS011;20319;28.466;-16.274;2022-09-09T08:33:42;5.18;;;2.53;;
34030;SDS011;20319;28.466;-16.274;2022-09-09T08:36:11;19.02;;;16.98;;
34030;SDS011;20319;28.466;-16.274;2022-09-09T08:38:40;13.68;;;10.15;;
34030;SDS011;20319;28.466;-16.274;2022-09-09T08:52:31;10.50;;;5.68;;
34030;SDS011;20319;28.466;-16.274;2022-09-09T08:55:50;5.53;;;2.95;;
34030;SDS011;20319;28.466;-16.274;2022-09-09T08:58:15;7.25;;;2.13;;
34030;SDS011;20319;28.466;-16.274;2022-09-09T09:11:49;7.25;;;3.30;;
34030;SDS011;20319;28.466;-16.274;2022-09-09T09:14:18;8.02;;;3.10;;
34030;SDS011;20319;28.466;-16.274;2022-09-09T09:19:24;5.10;;;2.70;;
34030;SDS011;20319;28.466;-16.274;2022-09-09T09:22:03;5.57;;;2.05;;
34030;SDS011;20319;28.466;-16.274;2022-09-09T09:24:55;4.97;;;1.98;;
34030;SDS011;20319;28.466;-16.274;2022-09-09T09:27:34;9.48;;;5.30;;
34030;SDS011;20319;28.466;-16.274;2022-09-09T09:30:19;16.65;;;13.60;;
34030;SDS011;20319;28.466;-16.274;2022-09-09T09:32:57;10.43;;;8.77;;
34030;SDS011;20319;28.466;-16.274;2022-09-09T09:35:31;7.78;;;6.32;;
34030;SDS011;20319;28.466;-16.274;2022-09-09T09:37:56;9.60;;;6.65;;
34030;SDS011;20319;28.466;-16.274;2022-09-09T09:40:22;4.80;;;2.53;;
34030;SDS011;20319;28.466;-16.274;2022-09-09T09:42:52;4.40;;;1.65;;
34030;SDS011;20319;28.466;-16.274;2022-09-09T09:45:31;6.20;;;1.90;;
34030;SDS011;20319;28.466;-16.274;2022-09-09T09:50:35;5.63;;;2.15;;
34030;SDS011;20319;28.466;-16.274;2022-09-09T09:53:27;9.13;;;1.98;;
34030;SDS011;20319;28.466;-16.274;2022-09-09T09:56:02;7.05;;;1.60;;
34030;SDS011;20319;28.466;-16.274;2022-09-09T09:58:33;8.30;;;1.88;;
34030;SDS011;20319;28.466;-16.274;2022-09-09T10:01:31;5.35;;;1.83;;
34030;SDS011;20319;28.466;-16.274;2022-09-09T10:04:18;4.68;;;1.38;;
34030;SDS011;20319;28.466;-16.274;2022-09-09T10:06:48;6.88;;;1.75;;
34030;SDS011;20319;28.466;-16.274;2022-09-09T10:14:35;7.82;;;1.40;;
34030;SDS011;20319;28.466;-16.274;2022-09-09T10:17:19;5.38;;;1.45;;
34030;SDS011;20319;28.466;-16.274;2022-09-09T10:20:16;4.50;;;1.45;;
34030;SDS011;20319;28.466;-16.274;2022-09-09T10:23:20;3.20;;;1.48;;
34030;SDS011;20319;28.466;-16.274;2022-09-09T10:26:03;7.40;;;1.90;;
34030;SDS011;20319;28.466;-16.274;2022-09-09T10:34:00;6.10;;;2.05;;
34030;SDS011;20319;28.466;-16.274;2022-09-09T10:36:33;5.07;;;1.60;;
34030;SDS011;20319;28.466;-16.274;2022-09-09T10:39:05;4.65;;;1.48;;
34030;SDS011;20319;28.466;-16.274;2022-09-09T10:55:19;8.13;;;1.58;;
34030;SDS011;20319;28.466;-16.274;2022-09-09T10:57:50;6.00;;;1.60;;
34030;SDS011;20319;28.466;-16.274;2022-09-09T11:00:23;6.72;;;1.90;;
34030;SDS011;20319;28.466;-16.274;2022-09-09T11:03:09;6.90;;;1.60;;
34030;SDS011;20319;28.466;-16.274;2022-09-09T11:05:56;7.47;;;1.75;;
34030;SDS011;20319;28.466;-16.274;2022-09-09T11:08:30;5.32;;;1.52;;
34030;SDS011;20319;28.466;-16.274;2022-09-09T11:18:59;3.28;;;1.45;;
34030;SDS011;20319;28.466;-16.274;2022-09-09T11:21:31;9.88;;;2.25;;
34030;SDS011;20319;28.466;-16.274;2022-09-09T11:24:03;7.07;;;1.52;;
34030;SDS011;20319;28.466;-16.274;2022-09-09T11:32:09;5.57;;;1.45;;
34030;SDS011;20319;28.466;-16.274;2022-09-09T11:43:00;4.85;;;1.55;;
34030;SDS011;20319;28.466;-16.274;2022-09-09T11:45:53;6.05;;;1.40;;
34030;SDS011;20319;28.466;-16.274;2022-09-09T11:48:34;4.25;;;1.90;;
34030;SDS011;20319;28.466;-16.274;2022-09-09T11:51:01;5.32;;;1.48;;
34030;SDS011;20319;28.466;-16.274;2022-09-09T11:53:33;6.15;;;1.40;;
34030;SDS011;20319;28.466;-16.274;2022-09-09T11:56:31;5.25;;;1.77;;
34030;SDS011;20319;28.466;-16.274;2022-09-09T12:01:42;6.35;;;1.90;;
34030;SDS011;20319;28.466;-16.274;2022-09-09T12:04:15;5.33;;;1.60;;
34030;SDS011;20319;28.466;-16.274;2022-09-09T12:17:31;3.33;;;1.35;;
34030;SDS011;20319;28.466;-16.274;2022-09-09T12:20:38;3.65;;;1.20;;
34030;SDS011;20319;28.466;-16.274;2022-09-09T12:31:17;4.22;;;1.17;;
34030;SDS011;20319;28.466;-16.274;2022-09-09T12:33:48;6.13;;;1.70;;
34030;SDS011;20319;28.466;-16.274;2022-09-09T12:36:27;3.83;;;1.40;;
34030;SDS011;20319;28.466;-16.274;2022-09-09T12:38:56;4.10;;;1.50;;
34030;SDS011;20319;28.466;-16.274;2022-09-09T12:41:35;5.43;;;1.35;;
34030;SDS011;20319;28.466;-16.274;2022-09-09T12:44:08;4.30;;;1.30;;
34030;SDS011;20319;28.466;-16.274;2022-09-09T12:46:36;4.63;;;1.60;;
34030;SDS011;20319;28.466;-16.274;2022-09-09T12:49:18;4.68;;;1.40;;
34030;SDS011;20319;28.466;-16.274;2022-09-09T12:52:05;3.20;;;1.45;;
34030;SDS011;20319;28.466;-16.274;2022-09-09T12:54:52;4.50;;;1.83;;
34030;SDS011;20319;28.466;-16.274;2022-09-09T12:57:19;3.20;;;1.23;;
34030;SDS011;20319;28.466;-16.274;2022-09-09T12:59:47;3.50;;;1.38;;
34030;SDS011;20319;28.466;-16.274;2022-09-09T13:02:21;5.18;;;1.50;;
34030;SDS011;20319;28.466;-16.274;2022-09-09T13:04:49;5.15;;;1.45;;
34030;SDS011;20319;28.466;-16.274;2022-09-09T13:07:17;5.65;;;1.50;;
34030;SDS011;20319;28.466;-16.274;2022-09-09T13:09:44;6.72;;;1.60;;
34030;SDS011;20319;28.466;-16.274;2022-09-09T13:12:14;5.88;;;1.90;;
34030;SDS011;20319;28.466;-16.274;2022-09-09T13:14:45;5.53;;;1.85;;
34030;SDS011;20319;28.466;-16.274;2022-09-09T13:17:23;32.55;;;11.40;;
34030;SDS011;20319;28.466;-16.274;2022-09-09T13:19:51;10.60;;;3.28;;
34030;SDS011;20319;28.466;-16.274;2022-09-09T13:25:03;7.70;;;2.58;;
34030;SDS011;20319;28.466;-16.274;2022-09-09T13:27:30;6.60;;;2.13;;
34030;SDS011;20319;28.466;-16.274;2022-09-09T13:29:59;7.03;;;1.63;;
34030;SDS011;20319;28.466;-16.274;2022-09-09T13:32:25;6.65;;;2.78;;
34030;SDS011;20319;28.466;-16.274;2022-09-09T13:34:52;8.93;;;5.75;;
34030;SDS011;20319;28.466;-16.274;2022-09-09T13:37:25;4.65;;;2.58;;
34030;SDS011;20319;28.466;-16.274;2022-09-09T13:39:58;5.50;;;2.33;;
34030;SDS011;20319;28.466;-16.274;2022-09-09T13:42:29;12.30;;;8.68;;
34030;SDS011;20319;28.466;-16.274;2022-09-09T13:44:56;6.88;;;3.83;;
34030;SDS011;20319;28.466;-16.274;2022-09-09T13:50:17;5.68;;;2.42;;
34030;SDS011;20319;28.466;-16.274;2022-09-09T13:52:56;5.70;;;4.20;;
34030;SDS011;20319;28.466;-16.274;2022-09-09T13:55:24;6.15;;;3.35;;
34030;SDS011;20319;28.466;-16.274;2022-09-09T13:57:52;5.70;;;3.85;;
34030;SDS011;20319;28.466;-16.274;2022-09-09T14:00:22;5.85;;;2.58;;
34030;SDS011;20319;28.466;-16.274;2022-09-09T14:02:49;6.53;;;3.80;;
34030;SDS011;20319;28.466;-16.274;2022-09-09T14:05:15;5.65;;;3.10;;
34030;SDS011;20319;28.466;-16.274;2022-09-09T14:07:42;6.78;;;3.92;;
34030;SDS011;20319;28.466;-16.274;2022-09-09T14:10:13;10.55;;;7.82;;
34030;SDS011;20319;28.466;-16.274;2022-09-09T14:12:39;7.68;;;6.88;;
34030;SDS011;20319;28.466;-16.274;2022-09-09T14:15:05;10.52;;;6.53;;
34030;SDS011;20319;28.466;-16.274;2022-09-09T14:17:33;7.32;;;5.28;;
34030;SDS011;20319;28.466;-16.274;2022-09-09T14:20:00;4.75;;;2.80;;
34030;SDS011;20319;28.466;-16.274;2022-09-09T14:22:26;3.10;;;1.90;;
34030;SDS011;20319;28.466;-16.274;2022-09-09T14:24:51;6.75;;;4.85;;
34030;SDS011;20319;28.466;-16.274;2022-09-09T14:27:17;4.25;;;2.05;;
34030;SDS011;20319;28.466;-16.274;2022-09-09T14:29:44;4.60;;;2.60;;
34030;SDS011;20319;28.466;-16.274;2022-09-09T14:32:10;5.07;;;2.80;;
34030;SDS011;20319;28.466;-16.274;2022-09-09T14:34:36;7.78;;;4.75;;
34030;SDS011;20319;28.466;-16.274;2022-09-09T14:37:02;6.55;;;2.72;;
34030;SDS011;20319;28.466;-16.274;2022-09-09T14:39:28;5.95;;;3.60;;
34030;SDS011;20319;28.466;-16.274;2022-09-09T14:41:53;6.28;;;3.28;;
34030;SDS011;20319;28.466;-16.274;2022-09-09T14:44:20;11.85;;;6.72;;
34030;SDS011;20319;28.466;-16.274;2022-09-09T14:46:45;11.00;;;8.80;;
34030;SDS011;20319;28.466;-16.274;2022-09-09T14:49:11;6.10;;;3.83;;
34030;SDS011;20319;28.466;-16.274;2022-09-09T14:51:37;7.43;;;2.22;;
34030;SDS011;20319;28.466;-16.274;2022-09-09T14:54:04;5.68;;;2.38;;
34030;SDS011;20319;28.466;-16.274;2022-09-09T14:56:31;6.35;;;2.22;;
34030;SDS011;20319;28.466;-16.274;2022-09-09T14:58:59;4.05;;;1.58;;
34030;SDS011;20319;28.466;-16.274;2022-09-09T15:01:29;5.65;;;1.65;;
34030;SDS011;20319;28.466;-16.274;2022-09-09T15:03:59;5.68;;;1.55;;
34030;SDS011;20319;28.466;-16.274;2022-09-09T15:06:28;3.70;;;1.65;;
34030;SDS011;20319;28.466;-16.274;2022-09-09T15:08:56;6.13;;;1.77;;
34030;SDS011;20319;28.466;-16.274;2022-09-09T15:11:29;5.53;;;1.60;;
34030;SDS011;20319;28.466;-16.274;2022-09-09T15:13:59;6.45;;;1.65;;
34030;SDS011;20319;28.466;-16.274;2022-09-09T15:16:26;9.05;;;1.67;;
34030;SDS011;20319;28.466;-16.274;2022-09-09T15:18:54;6.38;;;1.70;;
34030;SDS011;20319;28.466;-16.274;2022-09-09T15:21:22;5.47;;;2.05;;
34030;SDS011;20319;28.466;-16.274;2022-09-09T15:23:51;5.97;;;1.63;;
34030;SDS011;20319;28.466;-16.274;2022-09-09T15:26:17;5.45;;;1.30;;
34030;SDS011;20319;28.466;-16.274;2022-09-09T15:28:43;4.85;;;1.77;;
34030;SDS011;20319;28.466;-16.274;2022-09-09T15:31:15;6.05;;;1.48;;
34030;SDS011;20319;28.466;-16.274;2022-09-09T15:33:54;9.43;;;4.57;;
34030;SDS011;20319;28.466;-16.274;2022-09-09T15:39:08;4.00;;;1.70;;
34030;SDS011;20319;28.466;-16.274;2022-09-09T15:41:37;6.05;;;1.60;;
34030;SDS011;20319;28.466;-16.274;2022-09-09T15:44:04;4.15;;;1.23;;
34030;SDS011;20319;28.466;-16.274;2022-09-09T15:49:07;3.60;;;1.92;;
34030;SDS011;20319;28.466;-16.274;2022-09-09T15:51:35;4.40;;;1.50;;
34030;SDS011;20319;28.466;-16.274;2022-09-09T15:54:02;7.80;;;1.70;;
34030;SDS011;20319;28.466;-16.274;2022-09-09T15:56:29;5.18;;;1.40;;
34030;SDS011;20319;28.466;-16.274;2022-09-09T15:58:56;5.35;;;1.60;;
34030;SDS011;20319;28.466;-16.274;2022-09-09T16:01:22;7.10;;;1.77;;
34030;SDS011;20319;28.466;-16.274;2022-09-09T16:03:48;4.95;;;1.70;;
34030;SDS011;20319;28.466;-16.274;2022-09-09T16:06:20;6.00;;;1.80;;
34030;SDS011;20319;28.466;-16.274;2022-09-09T16:08:48;5.35;;;1.33;;
34030;SDS011;20319;28.466;-16.274;2022-09-09T16:11:16;5.68;;;1.70;;
34030;SDS011;20319;28.466;-16.274;2022-09-09T16:13:45;6.47;;;1.73;;
34030;SDS011;20319;28.466;-16.274;2022-09-09T16:16:11;5.95;;;1.60;;
34030;SDS011;20319;28.466;-16.274;2022-09-09T16:18:42;5.05;;;1.83;;
34030;SDS011;20319;28.466;-16.274;2022-09-09T16:21:14;5.82;;;1.70;;
34030;SDS011;20319;28.466;-16.274;2022-09-09T16:23:42;6.10;;;1.90;;
34030;SDS011;20319;28.466;-16.274;2022-09-09T16:26:12;7.35;;;1.83;;
34030;SDS011;20319;28.466;-16.274;2022-09-09T16:28:39;4.25;;;1.50;;
34030;SDS011;20319;28.466;-16.274;2022-09-09T16:31:05;5.90;;;1.70;;
34030;SDS011;20319;28.466;-16.274;2022-09-09T16:33:31;5.38;;;1.40;;
34030;SDS011;20319;28.466;-16.274;2022-09-09T16:35:57;4.95;;;1.48;;
34030;SDS011;20319;28.466;-16.274;2022-09-09T16:38:29;6.30;;;1.60;;
34030;SDS011;20319;28.466;-16.274;2022-09-09T16:40:58;4.20;;;1.40;;
34030;SDS011;20319;28.466;-16.274;2022-09-09T16:43:24;6.85;;;1.55;;
34030;SDS011;20319;28.466;-16.274;2022-09-09T16:45:50;9.43;;;3.10;;
34030;SDS011;20319;28.466;-16.274;2022-09-09T16:48:16;10.20;;;3.67;;
34030;SDS011;20319;28.466;-16.274;2022-09-09T16:50:41;8.23;;;4.82;;
34030;SDS011;20319;28.466;-16.274;2022-09-09T16:53:07;8.40;;;4.63;;
34030;SDS011;20319;28.466;-16.274;2022-09-09T16:55:37;5.75;;;2.13;;
34030;SDS011;20319;28.466;-16.274;2022-09-09T16:58:11;5.82;;;1.80;;
34030;SDS011;20319;28.466;-16.274;2022-09-09T17:00:37;5.95;;;1.95;;
34030;SDS011;20319;28.466;-16.274;2022-09-09T17:03:03;7.10;;;2.08;;
34030;SDS011;20319;28.466;-16.274;2022-09-09T17:05:29;6.43;;;2.58;;
34030;SDS011;20319;28.466;-16.274;2022-09-09T17:07:54;8.98;;;4.40;;
34030;SDS011;20319;28.466;-16.274;2022-09-09T17:10:24;7.03;;;4.45;;
34030;SDS011;20319;28.466;-16.274;2022-09-09T17:12:50;5.40;;;2.22;;
34030;SDS011;20319;28.466;-16.274;2022-09-09T17:15:16;6.88;;;3.30;;
34030;SDS011;20319;28.466;-16.274;2022-09-09T17:17:43;7.80;;;3.50;;